Time;durP1;ratioP1;P1;durP2;ratioP2;P2;SDS_P1;SDS_P2;PMS_P1;PMS_P2;Temp;Humidity;BMP_temperature;BMP_pressure;BME280_temperature;BME280_humidity;BME280_pressure;Samples;Min_cycle;Max_cycle;Signal;HPM_P1;HPM_P2
2024/01/28 00:02:35;;;;;;;16.73;7.88;;;;;;;2.03;84.81;100933.56;6182739;23;20028;-80
2024/01/28 00:05:20;;;;;;;13.43;5.93;;;;;;;2.06;85.45;100947.25;6211409;23;20028;-80
2024/01/28 00:08:09;;;;;;;13.07;6.70;;;;;;;1.92;84.70;100918.78;6205310;23;20057;-81
2024/01/28 00:10:54;;;;;;;11.07;5.78;;;;;;;2.06;83.55;100931.53;6162304;23;20441;-82
2024/01/28 00:13:39;;;;;;;13.30;6.55;;;;;;;2.14;83.95;100943.16;6183498;23;20039;-82
2024/01/28 00:16:25;;;;;;;15.85;7.72;;;;;;;2.10;84.31;100939.97;6204342;23;20023;-79
2024/01/28 00:19:11;;;;;;;11.00;5.35;;;;;;;2.12;83.51;100950.31;6185608;23;20318;-82
2024/01/28 00:21:56;;;;;;;19.88;9.25;;;;;;;2.14;83.27;100936.13;6210502;23;20032;-81
2024/01/28 00:24:42;;;;;;;14.38;6.88;;;;;;;2.14;83.33;100943.97;6210996;23;20027;-81
2024/01/28 00:27:27;;;;;;;16.95;7.43;;;;;;;2.06;83.88;100934.13;6209824;23;20031;-81
2024/01/28 00:30:13;;;;;;;15.70;7.03;;;;;;;2.18;82.52;100945.38;6190134;23;20039;-81
2024/01/28 00:32:59;;;;;;;14.05;6.32;;;;;;;2.17;82.77;100948.13;6213054;23;20023;-83
2024/01/28 00:35:44;;;;;;;12.77;6.65;;;;;;;2.15;82.30;100950.88;6195087;23;20047;-81
2024/01/28 00:38:31;;;;;;;8.98;5.18;;;;;;;2.14;82.27;100943.97;6225835;23;20023;-82
2024/01/28 00:41:26;;;;;;;25.70;11.88;;;;;;;2.18;81.88;100944.53;6203724;23;20072;-84
2024/01/28 00:44:11;;;;;;;19.75;8.70;;;;;;;2.25;81.40;100961.41;6221339;23;20027;-79
2024/01/28 00:46:57;;;;;;;20.05;7.63;;;;;;;2.20;81.78;100961.81;6184950;23;20031;-80
2024/01/28 00:49:43;;;;;;;12.57;5.78;;;;;;;2.16;82.29;100944.66;6209249;23;20043;-81
2024/01/28 00:52:28;;;;;;;13.20;6.30;;;;;;;2.16;81.94;100955.16;6167529;23;20028;-81
2024/01/28 00:55:13;;;;;;;17.42;8.30;;;;;;;2.06;81.92;100944.63;6188872;23;20023;-81
2024/01/28 00:57:59;;;;;;;11.82;7.05;;;;;;;2.04;82.03;100941.34;6187569;23;20028;-82
2024/01/28 01:00:44;;;;;;;18.75;8.10;;;;;;;2.10;82.33;100958.34;6186146;23;20028;-81
2024/01/28 01:03:31;;;;;;;29.45;13.52;;;;;;;2.04;82.53;100951.81;6209729;23;20444;-80
2024/01/28 01:06:16;;;;;;;14.98;6.00;;;;;;;1.99;83.11;100951.38;6183806;23;20036;-81
2024/01/28 01:09:02;;;;;;;22.27;9.65;;;;;;;1.97;83.14;100947.22;6185278;23;20434;-82
2024/01/28 01:11:47;;;;;;;24.00;11.35;;;;;;;1.92;83.46;100946.81;6204822;23;20031;-83
2024/01/28 01:14:37;;;;;;;23.27;12.00;;;;;;;1.92;83.95;100957.28;6184136;23;20315;-82
2024/01/28 01:17:23;;;;;;;13.85;6.60;;;;;;;1.84;84.22;100950.06;6185828;23;20043;-81
2024/01/28 01:20:09;;;;;;;14.45;7.35;;;;;;;1.79;84.31;100945.22;6184309;23;20028;-81
2024/01/28 01:22:54;;;;;;;15.95;7.88;;;;;;;1.88;84.55;100961.13;6189292;23;20043;-82
2024/01/28 01:25:39;;;;;;;15.30;7.63;;;;;;;1.84;84.29;100942.19;6184473;23;20315;-82
2024/01/28 01:28:31;;;;;;;14.52;7.53;;;;;;;1.90;85.14;100953.97;6183394;23;20027;-80
2024/01/28 01:31:16;;;;;;;16.63;8.38;;;;;;;1.74;85.11;100942.16;6204783;23;20035;-83
2024/01/28 01:34:03;;;;;;;16.70;7.70;;;;;;;1.78;85.27;100959.28;6205192;23;20298;-81
2024/01/28 01:36:48;;;;;;;18.98;8.65;;;;;;;1.79;85.40;100960.97;6182958;23;20453;-81
2024/01/28 01:39:33;;;;;;;21.35;10.93;;;;;;;1.78;85.56;100951.41;6184346;23;20028;-82
2024/01/28 01:42:19;;;;;;;19.90;10.52;;;;;;;1.79;85.75;100953.09;6183358;23;20027;-83
2024/01/28 01:45:04;;;;;;;18.17;8.32;;;;;;;1.76;85.58;100955.16;6183131;23;20027;-81
2024/01/28 01:47:49;;;;;;;14.85;6.90;;;;;;;1.69;85.46;100933.00;6182876;23;20533;-81
2024/01/28 01:50:35;;;;;;;22.05;9.07;;;;;;;1.76;85.71;100950.72;6163671;23;20313;-81
2024/01/28 01:53:20;;;;;;;22.55;9.85;;;;;;;1.83;85.91;100956.28;6210731;23;20310;-79
2024/01/28 01:56:06;;;;;;;19.67;10.02;;;;;;;1.75;85.96;100937.72;6194269;23;20020;-80
2024/01/28 01:58:53;;;;;;;21.83;9.75;;;;;;;1.79;85.69;100941.78;6205284;23;20027;-80
2024/01/28 02:01:39;;;;;;;25.25;11.57;;;;;;;1.79;86.51;100947.84;6195739;23;20055;-81
2024/01/28 02:04:24;;;;;;;23.17;11.45;;;;;;;1.71;85.72;100936.34;6207734;23;20047;-81
2024/01/28 02:07:09;;;;;;;19.45;9.45;;;;;;;1.69;86.36;100931.22;6183514;23;20303;-80
2024/01/28 02:09:54;;;;;;;23.70;11.60;;;;;;;1.65;86.07;100932.44;6182381;23;20430;-80
2024/01/28 02:12:42;;;;;;;23.88;11.77;;;;;;;1.60;85.67;100935.47;6181885;23;20040;-83
2024/01/28 02:15:27;;;;;;;25.85;12.88;;;;;;;1.59;86.39;100943.44;6161664;23;20028;-82
2024/01/28 02:18:12;;;;;;;26.58;12.57;;;;;;;1.41;86.73;100929.28;6182747;23;20469;-82
2024/01/28 02:20:57;;;;;;;62.17;31.67;;;;;;;1.37;86.59;100932.16;6183973;23;20028;-81
2024/01/28 02:23:43;;;;;;;224.45;80.35;;;;;;;1.42;85.84;100947.50;6185021;23;20031;-82
2024/01/28 02:26:28;;;;;;;310.63;116.50;;;;;;;1.54;83.85;100945.66;6206238;23;20425;-81
2024/01/28 02:29:14;;;;;;;173.13;70.22;;;;;;;1.76;81.49;100950.72;6206660;23;20429;-81
2024/01/28 02:32:00;;;;;;;408.95;203.52;;;;;;;2.00;79.68;100945.16;6184406;23;20314;-81
2024/01/28 02:34:45;;;;;;;75.45;32.90;;;;;;;2.04;79.32;100945.75;6205708;23;20403;-80
2024/01/28 02:37:30;;;;;;;197.50;85.78;;;;;;;2.05;79.19;100950.03;6184046;23;20312;-81
2024/01/28 02:40:15;;;;;;;295.38;136.85;;;;;;;2.03;78.77;100952.75;6205938;23;20327;-81
2024/01/28 02:43:03;;;;;;;41.08;24.10;;;;;;;2.01;78.66;100943.38;6205832;23;20415;-80
2024/01/28 02:45:49;;;;;;;15.40;7.47;;;;;;;2.12;77.83;100956.41;6184302;23;20358;-81
2024/01/28 02:48:34;;;;;;;8.45;4.03;;;;;;;2.19;78.37;100964.56;6184173;23;20028;-81
2024/01/28 02:51:19;;;;;;;8.77;3.45;;;;;;;2.19;77.60;100954.88;6184999;23;20039;-82
2024/01/28 02:54:05;;;;;;;8.00;3.28;;;;;;;2.27;77.21;100962.09;6184360;23;20023;-80
2024/01/28 02:56:51;;;;;;;10.02;4.43;;;;;;;2.23;76.48;100958.94;6185011;23;20024;-82
2024/01/28 02:59:37;;;;;;;11.10;4.40;;;;;;;2.21;76.52;100955.59;6204052;23;20032;-80
2024/01/28 03:02:23;;;;;;;8.68;3.28;;;;;;;2.37;76.23;100968.22;6182028;23;20437;-80
2024/01/28 03:05:09;;;;;;;8.70;3.22;;;;;;;2.20;76.37;100951.31;6161769;23;20441;-83
2024/01/28 03:07:55;;;;;;;7.32;3.40;;;;;;;2.17;77.13;100971.75;6205587;23;20027;-81
2024/01/28 03:10:41;;;;;;;8.90;3.20;;;;;;;2.09;77.21;100969.78;6184535;23;20433;-83
2024/01/28 03:13:26;;;;;;;7.47;3.42;;;;;;;2.03;77.34;100965.06;6189104;23;20076;-81
2024/01/28 03:16:11;;;;;;;6.13;3.10;;;;;;;1.80;77.98;100959.16;6199517;23;20027;-84
2024/01/28 03:18:56;;;;;;;10.02;4.72;;;;;;;1.84;77.70;100966.63;6203631;23;20047;-79
2024/01/28 03:21:42;;;;;;;8.80;4.70;;;;;;;1.89;77.34;100973.28;6198054;23;20019;-80
2024/01/28 03:24:27;;;;;;;9.82;4.35;;;;;;;1.87;77.14;100980.44;6185283;23;20322;-80
2024/01/28 03:27:13;;;;;;;9.40;3.40;;;;;;;1.84;77.00;100971.03;6207290;23;20032;-81
2024/01/28 03:29:58;;;;;;;14.15;4.20;;;;;;;1.92;77.02;100981.72;6184845;23;20433;-81
2024/01/28 03:32:43;;;;;;;8.27;3.75;;;;;;;1.94;76.79;100981.56;6205625;23;20322;-81
2024/01/28 03:35:29;;;;;;;9.68;4.40;;;;;;;1.97;77.29;100984.75;6206512;23;20024;-81
2024/01/28 03:38:14;;;;;;;8.30;3.70;;;;;;;2.03;76.87;100983.41;6185412;23;20028;-82
2024/01/28 03:40:59;;;;;;;10.07;4.15;;;;;;;2.04;76.91;100978.03;6163861;23;20027;-82
2024/01/28 03:43:46;;;;;;;8.70;3.58;;;;;;;2.03;76.73;100980.78;6184158;23;20433;-80
2024/01/28 03:46:32;;;;;;;6.18;3.63;;;;;;;1.97;76.72;100974.25;6201399;23;20386;-82
2024/01/28 03:49:17;;;;;;;10.75;4.10;;;;;;;1.93;77.07;100986.00;6183690;23;20028;-83
2024/01/28 03:52:03;;;;;;;10.15;3.78;;;;;;;1.87;77.03;100977.81;6163941;23;20323;-82
2024/01/28 03:54:49;;;;;;;9.48;4.43;;;;;;;1.94;77.08;100990.25;6203034;23;20043;-82
2024/01/28 03:57:33;;;;;;;9.95;4.38;;;;;;;1.78;77.11;100967.13;6181647;23;20036;-83
2024/01/28 04:00:19;;;;;;;13.02;4.40;;;;;;;1.73;77.99;100973.75;6180943;23;20091;-82
2024/01/28 04:03:05;;;;;;;12.13;4.43;;;;;;;1.72;78.17;100996.50;6161475;23;20028;-80
2024/01/28 04:05:50;;;;;;;6.60;3.88;;;;;;;1.58;78.13;100988.97;6184677;23;20314;-79
2024/01/28 04:08:36;;;;;;;10.43;4.28;;;;;;;1.69;77.89;101009.03;6184141;23;20027;-79
2024/01/28 04:11:27;;;;;;;11.68;4.95;;;;;;;1.70;77.11;101000.22;6206194;23;20047;-82
2024/01/28 04:14:13;;;;;;;11.40;4.18;;;;;;;1.64;77.98;101004.19;6164421;23;20027;-80
2024/01/28 04:16:59;;;;;;;7.78;3.08;;;;;;;1.62;78.07;101001.66;6184937;23;20027;-80
2024/01/28 04:19:44;;;;;;;12.50;4.45;;;;;;;1.64;77.76;100998.94;6188108;23;20024;-81
2024/01/28 04:22:29;;;;;;;12.55;3.40;;;;;;;1.55;78.07;100995.28;6186986;23;20322;-82
2024/01/28 04:25:15;;;;;;;3.60;2.28;;;;;;;1.64;77.40;100998.13;6185630;23;20031;-80
2024/01/28 04:28:00;;;;;;;10.13;3.65;;;;;;;1.60;78.15;101002.78;6164056;23;20322;-81
2024/01/28 04:30:45;;;;;;;11.00;3.80;;;;;;;1.69;77.04;101014.25;6166063;23;20023;-80
2024/01/28 04:33:30;;;;;;;5.75;3.13;;;;;;;1.70;77.37;101008.91;6191335;23;20027;-80
2024/01/28 04:36:16;;;;;;;8.18;3.10;;;;;;;1.68;76.30;100999.50;6204375;23;20020;-82
2024/01/28 04:39:02;;;;;;;15.68;7.05;;;;;;;1.78;77.06;101021.34;6203848;23;20028;-81
2024/01/28 04:41:47;;;;;;;13.20;6.70;;;;;;;1.74;77.39;101019.97;6197823;23;20040;-82
2024/01/28 04:44:33;;;;;;;14.75;6.20;;;;;;;1.75;77.54;101019.81;6204469;23;20031;-81
2024/01/28 04:47:18;;;;;;;17.15;9.90;;;;;;;1.65;77.28;101005.84;6177372;23;20036;-80
2024/01/28 04:50:04;;;;;;;12.82;6.72;;;;;;;1.72;77.32;101027.94;6184231;23;20079;-80
2024/01/28 04:52:49;;;;;;;31.50;18.65;;;;;;;1.79;77.07;101034.34;6206238;23;20043;-80
2024/01/28 04:55:35;;;;;;;14.05;7.90;;;;;;;1.76;77.23;101032.00;6184462;23;20028;-83
2024/01/28 04:58:21;;;;;;;13.85;5.78;;;;;;;1.80;77.80;101045.66;6182887;23;20310;-81
2024/01/28 05:01:07;;;;;;;13.02;5.63;;;;;;;1.76;77.47;101037.22;6183250;23;20044;-83
2024/01/28 05:03:51;;;;;;;15.20;6.28;;;;;;;1.77;77.02;101061.66;6202678;23;20031;-81
2024/01/28 05:06:36;;;;;;;14.25;6.93;;;;;;;1.78;77.49;101071.16;6181952;23;20028;-81
2024/01/28 05:09:22;;;;;;;16.27;6.88;;;;;;;1.80;76.79;101064.84;6203449;23;20047;-81
2024/01/28 05:12:07;;;;;;;9.85;4.85;;;;;;;1.77;77.14;101070.34;6181547;23;20027;-82
2024/01/28 05:14:53;;;;;;;9.38;4.25;;;;;;;1.74;77.21;101075.84;6181931;23;20027;-82
2024/01/28 05:17:39;;;;;;;11.60;4.10;;;;;;;1.79;77.36;101072.84;6203186;23;20418;-81
2024/01/28 05:20:24;;;;;;;13.02;4.13;;;;;;;1.69;76.96;101062.28;6161968;23;20441;-81
2024/01/28 05:23:10;;;;;;;10.10;4.00;;;;;;;1.75;77.21;101080.13;6205128;23;20031;-82
2024/01/28 05:25:57;;;;;;;11.32;4.22;;;;;;;1.74;76.96;101082.88;6202352;23;20048;-81
2024/01/28 05:28:42;;;;;;;7.82;3.63;;;;;;;1.72;77.54;101074.31;6181769;23;20028;-84
2024/01/28 05:31:27;;;;;;;8.70;4.00;;;;;;;1.58;78.62;101070.22;6160551;23;20433;-81
2024/01/28 05:34:12;;;;;;;18.80;4.38;;;;;;;1.67;78.11;101092.22;6160587;23;20023;-81
2024/01/28 05:36:58;;;;;;;10.48;4.25;;;;;;;1.64;78.60;101095.91;6202849;23;20043;-81
2024/01/28 05:39:44;;;;;;;15.57;5.63;;;;;;;1.52;78.59;101075.94;6202569;23;20024;-81
2024/01/28 05:42:29;;;;;;;15.48;6.05;;;;;;;1.59;78.88;101090.22;6202901;23;20442;-82
2024/01/28 05:45:15;;;;;;;11.40;5.57;;;;;;;1.57;78.83;101086.91;6182174;23;20078;-82
2024/01/28 05:48:02;;;;;;;11.25;4.53;;;;;;;1.56;79.05;101093.06;6192405;23;20315;-81
2024/01/28 05:50:47;;;;;;;11.63;4.47;;;;;;;1.67;78.27;101102.69;6163952;23;20023;-82
2024/01/28 05:53:32;;;;;;;12.02;4.50;;;;;;;1.72;78.73;101105.75;6213646;23;20434;-80
2024/01/28 05:56:18;;;;;;;12.18;4.57;;;;;;;1.78;78.07;101108.69;6225936;23;20023;-82
2024/01/28 05:59:04;;;;;;;7.25;4.65;;;;;;;1.79;78.00;101107.75;6220144;23;20019;-80
2024/01/28 06:01:49;;;;;;;12.60;4.90;;;;;;;1.81;77.83;101103.19;6192523;23;20047;-80
2024/01/28 06:04:34;;;;;;;10.10;5.05;;;;;;;1.80;77.99;101104.16;6182326;23;20032;-81
2024/01/28 06:07:20;;;;;;;9.43;4.18;;;;;;;1.84;77.56;101113.44;6181351;23;20080;-81
2024/01/28 06:10:06;;;;;;;12.38;5.28;;;;;;;1.92;77.48;101112.81;6210610;23;20023;-80
2024/01/28 06:12:52;;;;;;;20.35;8.57;;;;;;;1.97;77.15;101115.03;6189475;23;20429;-81
2024/01/28 06:15:37;;;;;;;15.57;7.43;;;;;;;1.89;77.05;101096.50;6189181;23;20387;-80
2024/01/28 06:18:22;;;;;;;14.85;6.38;;;;;;;1.97;76.78;101094.88;6190043;23;20044;-80
2024/01/28 06:21:08;;;;;;;16.17;6.93;;;;;;;1.87;77.30;101101.03;6211526;23;20019;-82
2024/01/28 06:23:53;;;;;;;14.40;6.97;;;;;;;1.96;77.10;101108.97;6211000;23;20031;-81
2024/01/28 06:26:39;;;;;;;16.63;6.30;;;;;;;2.01;76.87;101124.34;6183979;23;20032;-81
2024/01/28 06:29:24;;;;;;;9.45;5.47;;;;;;;2.03;76.56;101143.38;6183172;23;20028;-82
2024/01/28 06:32:11;;;;;;;11.30;5.07;;;;;;;2.01;77.13;101147.94;6182430;23;20028;-82
2024/01/28 06:34:56;;;;;;;18.33;6.30;;;;;;;2.02;76.32;101150.41;6160842;23;20044;-81
2024/01/28 06:37:41;;;;;;;17.27;7.32;;;;;;;2.04;76.46;101156.38;6202122;23;20028;-81
2024/01/28 06:40:27;;;;;;;14.90;5.75;;;;;;;2.13;75.95;101153.94;6203951;23;20322;-81
2024/01/28 06:43:13;;;;;;;11.43;5.78;;;;;;;2.08;76.72;101143.84;6181399;23;20314;-83
2024/01/28 06:45:59;;;;;;;13.32;5.60;;;;;;;2.17;76.02;101153.56;6202830;23;20047;-80
2024/01/28 06:48:45;;;;;;;15.80;7.45;;;;;;;2.29;75.70;101152.53;6160988;23;20315;-82
2024/01/28 06:51:30;;;;;;;23.77;8.93;;;;;;;2.24;76.57;101152.09;6202820;23;20048;-79
2024/01/28 06:54:18;;;;;;;13.98;7.00;;;;;;;2.36;74.99;101162.53;6182321;23;20441;-82
2024/01/28 06:57:04;;;;;;;13.20;5.15;;;;;;;2.36;74.65;101155.47;6183286;23;20027;-80
2024/01/28 06:59:49;;;;;;;14.05;5.55;;;;;;;2.42;74.80;101156.75;6162530;23;20047;-82
2024/01/28 07:02:35;;;;;;;11.43;6.15;;;;;;;2.50;74.95;101172.69;6161331;23;20440;-79
2024/01/28 07:05:20;;;;;;;17.60;5.85;;;;;;;2.59;74.58;101158.78;6181963;23;20071;-80
2024/01/28 07:08:07;;;;;;;17.30;5.80;;;;;;;2.64;73.44;101142.66;6202370;23;20031;-79
2024/01/28 07:10:53;;;;;;;11.13;5.85;;;;;;;2.94;73.32;101160.16;6204610;23;20028;-79
2024/01/28 07:13:38;;;;;;;7.00;2.85;;;;;;;2.80;72.18;101152.66;6208187;23;20043;-78
2024/01/28 07:16:24;;;;;;;27.77;5.82;;;;;;;2.96;73.89;101163.50;6196413;23;20426;-78
2024/01/28 07:19:09;;;;;;;10.07;4.28;;;;;;;2.85;72.61;101160.97;6207288;23;20453;-79
2024/01/28 07:21:55;;;;;;;18.98;6.75;;;;;;;3.02;72.78;101157.72;6182815;23;20314;-79
2024/01/28 07:24:40;;;;;;;19.70;8.90;;;;;;;2.95;72.17;101153.97;6201714;23;20438;-80
2024/01/28 07:27:26;;;;;;;16.80;6.57;;;;;;;3.07;72.91;101163.41;6202621;23;20043;-81
2024/01/28 07:30:12;;;;;;;10.88;5.28;;;;;;;3.01;72.13;101167.41;6182289;23;20023;-80
2024/01/28 07:32:57;;;;;;;12.57;4.75;;;;;;;3.00;72.37;101168.34;6203957;23;20314;-80
2024/01/28 07:35:43;;;;;;;15.57;6.35;;;;;;;3.03;72.79;101172.50;6182123;23;20441;-82
2024/01/28 07:38:28;;;;;;;16.80;7.28;;;;;;;3.02;72.42;101165.59;6203558;23;20027;-79
2024/01/28 07:41:14;;;;;;;13.57;7.80;;;;;;;3.07;72.58;101163.41;6183349;23;20043;-78
2024/01/28 07:44:00;;;;;;;32.95;17.30;;;;;;;3.22;72.17;101174.34;6203734;23;20448;-78
2024/01/28 07:46:46;;;;;;;26.42;12.13;;;;;;;3.32;71.24;101179.63;6203822;23;20028;-78
2024/01/28 07:49:32;;;;;;;12.18;4.05;;;;;;;3.29;70.79;101172.03;6182768;23;20039;-80
2024/01/28 07:52:17;;;;;;;8.80;5.63;;;;;;;3.29;71.63;101183.38;6204655;23;20027;-80
2024/01/28 07:55:03;;;;;;;5.93;3.22;;;;;;;3.15;70.60;101168.00;6162291;23;20027;-81
2024/01/28 07:57:48;;;;;;;11.50;3.70;;;;;;;3.31;71.00;101201.63;6182219;23;20044;-80
2024/01/28 08:00:34;;;;;;;6.85;3.60;;;;;;;3.29;70.46;101185.16;6182410;23;20027;-82
2024/01/28 08:03:19;;;;;;;16.33;6.55;;;;;;;3.36;71.73;101200.28;6204366;23;20318;-82
2024/01/28 08:06:07;;;;;;;8.23;4.45;;;;;;;3.33;70.87;101190.03;6203908;23;20028;-80
2024/01/28 08:08:53;;;;;;;11.82;5.78;;;;;;;3.29;70.09;101180.75;6204728;23;20441;-80
2024/01/28 08:11:38;;;;;;;7.82;4.53;;;;;;;3.40;71.27;101182.44;6163495;23;20020;-82
2024/01/28 08:14:27;;;;;;;9.27;4.18;;;;;;;3.44;71.21;101189.06;6205540;23;20028;-81
2024/01/28 08:17:13;;;;;;;11.15;4.20;;;;;;;3.40;70.88;101185.88;6185841;23;20027;-82
2024/01/28 08:19:58;;;;;;;8.07;4.43;;;;;;;3.40;71.14;101198.22;6182030;23;20027;-81
2024/01/28 08:22:43;;;;;;;11.98;3.78;;;;;;;3.44;70.66;101196.97;6182687;23;20437;-79
2024/01/28 08:25:29;;;;;;;12.07;4.90;;;;;;;3.44;70.30;101191.69;6162540;23;20032;-79
2024/01/28 08:28:15;;;;;;;11.95;5.65;;;;;;;3.64;70.33;101195.22;6164688;23;20028;-81
2024/01/28 08:31:00;;;;;;;17.85;7.47;;;;;;;3.63;70.61;101201.44;6171460;23;20035;-81
2024/01/28 08:33:45;;;;;;;7.63;4.07;;;;;;;3.67;69.32;101215.97;6205103;23;20046;-81
2024/01/28 08:36:31;;;;;;;12.35;3.10;;;;;;;3.64;69.61;101195.22;6180266;23;20023;-80
2024/01/28 08:39:16;;;;;;;8.05;4.13;;;;;;;3.60;69.68;101192.00;6189286;23;20044;-80
2024/01/28 08:42:02;;;;;;;10.30;3.10;;;;;;;3.72;69.76;101180.41;6203201;23;20433;-80
2024/01/28 08:44:47;;;;;;;4.68;3.38;;;;;;;3.83;69.48;101192.59;6203349;23;20028;-82
2024/01/28 08:47:32;;;;;;;9.90;4.30;;;;;;;3.88;69.13;101203.53;6195109;23;20048;-81
2024/01/28 08:50:17;;;;;;;5.60;3.97;;;;;;;3.77;69.52;101202.84;6203673;23;20318;-83
2024/01/28 08:53:02;;;;;;;12.30;4.10;;;;;;;3.81;69.30;101212.13;6203296;23;20413;-80
2024/01/28 08:55:48;;;;;;;21.52;4.13;;;;;;;3.72;69.42;101222.47;6182263;23;20040;-81
2024/01/28 08:58:33;;;;;;;10.80;3.70;;;;;;;3.77;69.91;101226.50;6161655;23;20039;-83
2024/01/28 09:01:19;;;;;;;9.65;4.65;;;;;;;3.69;69.60;101230.63;6161440;23;20024;-81
2024/01/28 09:04:05;;;;;;;10.82;4.85;;;;;;;3.71;70.32;101241.03;6182124;23;20043;-82
2024/01/28 09:06:50;;;;;;;9.20;4.60;;;;;;;3.68;69.88;101226.34;6161615;23;20043;-82
2024/01/28 09:09:36;;;;;;;9.30;5.57;;;;;;;3.77;70.09;101229.97;6182276;23;20453;-82
2024/01/28 09:12:21;;;;;;;7.95;5.55;;;;;;;3.67;70.95;101215.97;6182931;23;20043;-83
2024/01/28 09:15:07;;;;;;;19.02;4.22;;;;;;;3.81;70.04;101247.13;6206162;23;20322;-82
2024/01/28 09:17:52;;;;;;;6.80;4.45;;;;;;;3.84;70.37;101241.59;6203908;23;20437;-83
2024/01/28 09:20:37;;;;;;;10.75;5.20;;;;;;;3.74;70.05;101242.56;6182104;23;20028;-81
2024/01/28 09:23:22;;;;;;;7.43;4.13;;;;;;;3.82;70.17;101263.72;6160974;23;20421;-79
2024/01/28 09:26:07;;;;;;;8.30;3.95;;;;;;;3.79;69.98;101250.84;6181594;23;20438;-82
2024/01/28 09:28:53;;;;;;;6.78;3.22;;;;;;;3.84;70.01;101257.38;6183095;23;20319;-81
2024/01/28 09:31:43;;;;;;;4.25;3.03;;;;;;;3.90;69.97;101266.53;6182347;23;20043;-81
2024/01/28 09:34:28;;;;;;;4.95;2.65;;;;;;;3.77;69.54;101253.63;6161357;23;20027;-82
2024/01/28 09:37:14;;;;;;;4.97;3.00;;;;;;;3.82;69.41;101266.38;6182966;23;20287;-81
2024/01/28 09:39:59;;;;;;;11.15;4.63;;;;;;;3.70;69.04;101245.47;6161794;23;20445;-82
2024/01/28 09:42:59;;;;;;;4.57;3.08;;;;;;;3.86;69.29;101250.19;6182505;23;20043;-83
2024/01/28 09:45:44;;;;;;;12.98;5.22;;;;;;;3.93;68.80;101253.09;6204139;23;20342;-82
2024/01/28 09:48:30;;;;;;;9.55;4.47;;;;;;;3.97;68.72;101246.59;6187376;23;20031;-83
2024/01/28 09:51:15;;;;;;;5.32;2.55;;;;;;;4.03;69.03;101253.13;6181206;23;20032;-83
2024/01/28 09:54:01;;;;;;;6.38;3.63;;;;;;;3.97;69.43;101238.69;6182752;23;20349;-82
2024/01/28 09:56:47;;;;;;;10.43;5.28;;;;;;;4.04;68.74;101252.13;6178905;23;20028;-82
2024/01/28 09:59:35;;;;;;;9.45;4.43;;;;;;;4.10;69.18;101255.03;6183312;23;20072;-83
2024/01/28 10:02:20;;;;;;;15.57;6.10;;;;;;;4.05;68.83;101238.03;6182479;23;20092;-83
2024/01/28 10:05:10;;;;;;;12.65;4.78;;;;;;;4.24;68.34;101256.44;6181955;23;20027;-82
2024/01/28 10:08:04;;;;;;;14.30;5.70;;;;;;;4.25;68.76;101254.63;6184148;23;20406;-82
2024/01/28 10:10:53;;;;;;;8.48;3.53;;;;;;;4.19;68.38;101250.75;6161575;23;20445;-82
2024/01/28 10:13:39;;;;;;;7.05;3.35;;;;;;;4.12;68.25;101225.97;6162314;23;20442;-82
2024/01/28 10:16:25;;;;;;;6.47;4.25;;;;;;;4.09;68.50;101224.44;6182980;23;20043;-84
2024/01/28 10:19:10;;;;;;;7.20;4.10;;;;;;;4.26;68.90;101241.34;6181264;23;20031;-83
2024/01/28 10:21:57;;;;;;;15.05;5.75;;;;;;;4.11;68.61;101227.78;6183743;23;20043;-82
2024/01/28 10:24:44;;;;;;;14.10;4.65;;;;;;;4.46;67.81;101249.22;6161568;23;20047;-84
2024/01/28 10:27:30;;;;;;;10.45;5.10;;;;;;;4.29;67.72;101248.94;6181084;23;20322;-84
2024/01/28 10:30:18;;;;;;;11.27;5.25;;;;;;;4.25;69.24;101249.38;6160518;23;20032;-84
2024/01/28 10:33:03;;;;;;;13.52;5.40;;;;;;;4.15;68.20;101233.59;6181138;23;20024;-81
2024/01/28 10:35:55;;;;;;;12.93;5.03;;;;;;;4.37;67.76;101254.34;6162299;23;20431;-82
2024/01/28 10:38:44;;;;;;;10.77;5.18;;;;;;;4.12;68.71;101244.41;6160683;23;20031;-82
2024/01/28 10:41:34;;;;;;;5.60;3.20;;;;;;;4.03;68.76;101235.53;6201517;23;20032;-83
2024/01/28 10:44:20;;;;;;;6.90;3.75;;;;;;;4.13;68.94;101260.03;6181794;23;20028;-82
2024/01/28 10:47:08;;;;;;;14.25;5.07;;;;;;;4.00;68.84;101243.69;6174410;23;20111;-83
2024/01/28 10:50:00;;;;;;;5.95;4.22;;;;;;;4.03;68.50;101256.56;6182235;23;20314;-83
2024/01/28 10:52:47;;;;;;;10.45;4.60;;;;;;;3.99;69.44;101259.63;6202313;23;20445;-81
2024/01/28 10:55:33;;;;;;;10.80;5.28;;;;;;;3.96;69.71;101254.63;6160190;23;20028;-82
2024/01/28 10:58:21;;;;;;;12.50;5.38;;;;;;;4.09;68.14;101253.38;6161826;23;20044;-82
2024/01/28 11:01:07;;;;;;;20.05;7.45;;;;;;;4.09;68.69;101257.81;6160490;23;20434;-81
2024/01/28 11:03:53;;;;;;;4.93;3.47;;;;;;;4.01;69.09;101258.53;6182494;23;20024;-82
2024/01/28 11:06:40;;;;;;;17.05;7.25;;;;;;;3.98;69.88;101242.16;6186644;23;20048;-84
2024/01/28 11:09:26;;;;;;;7.85;3.08;;;;;;;4.02;68.91;101244.41;6202136;23;20032;-82
2024/01/28 11:12:12;;;;;;;16.85;6.22;;;;;;;4.08;69.59;101246.47;6223145;23;20035;-81
2024/01/28 11:14:58;;;;;;;10.38;6.07;;;;;;;4.06;68.58;101252.84;6197156;23;20433;-83
2024/01/28 11:17:44;;;;;;;9.85;4.95;;;;;;;4.02;68.66;101243.56;6182004;23;20028;-84
2024/01/28 11:20:34;;;;;;;8.45;3.58;;;;;;;4.04;69.31;101246.88;6181071;23;20072;-83
2024/01/28 11:23:19;;;;;;;9.77;5.35;;;;;;;4.00;68.51;101238.44;6201428;23;20267;-82
2024/01/28 11:26:12;;;;;;;6.03;3.58;;;;;;;4.04;69.12;101238.97;6181388;23;20032;-82
2024/01/28 11:28:57;;;;;;;19.92;6.28;;;;;;;4.09;68.78;101234.97;6159701;23;20027;-82
2024/01/28 11:31:44;;;;;;;8.68;3.95;;;;;;;4.09;69.09;101227.06;6160885;23;20028;-83
2024/01/28 11:34:30;;;;;;;6.20;3.45;;;;;;;4.12;68.79;101229.44;6202158;23;20028;-83
2024/01/28 11:37:17;;;;;;;6.88;3.70;;;;;;;4.14;68.10;101224.88;6160725;23;20028;-82
2024/01/28 11:40:06;;;;;;;11.38;5.15;;;;;;;4.12;69.18;101210.19;6161300;23;20027;-84
2024/01/28 11:42:55;;;;;;;8.18;3.88;;;;;;;4.07;68.67;101226.38;6180934;23;20035;-83
2024/01/28 11:45:41;;;;;;;10.02;5.60;;;;;;;4.11;69.39;101222.53;6181767;23;20032;-82
2024/01/28 11:48:28;;;;;;;7.15;3.95;;;;;;;4.14;69.27;101222.25;6191970;23;20390;-85
2024/01/28 11:51:13;;;;;;;7.75;4.15;;;;;;;4.17;69.16;101221.97;6159517;23;20043;-81
2024/01/28 11:54:03;;;;;;;5.10;2.92;;;;;;;4.08;69.02;101208.81;6180713;23;20036;-78
2024/01/28 11:56:50;;;;;;;12.88;5.85;;;;;;;4.14;69.01;101224.88;6159578;23;20027;-81
2024/01/28 11:59:35;;;;;;;11.20;4.07;;;;;;;4.03;69.03;101200.50;6201967;23;20043;-80
2024/01/28 12:02:21;;;;;;;9.52;3.45;;;;;;;4.19;68.79;101219.19;6181114;23;20027;-81
2024/01/28 12:05:07;;;;;;;15.73;3.47;;;;;;;4.10;67.79;101215.56;6159357;23;20031;-81
2024/01/28 12:07:55;;;;;;;7.75;4.00;;;;;;;4.14;68.13;101214.34;6182252;23;20429;-81
2024/01/28 12:10:41;;;;;;;14.82;4.25;;;;;;;4.26;68.33;101219.44;6163583;23;20027;-82
2024/01/28 12:13:26;;;;;;;13.50;3.83;;;;;;;4.26;68.66;101207.13;6182252;23;20044;-80
2024/01/28 12:16:12;;;;;;;9.95;4.18;;;;;;;4.25;68.38;101213.34;6201826;23;20315;-80
2024/01/28 12:18:58;;;;;;;7.68;3.47;;;;;;;4.13;68.33;101202.13;6180172;23;20322;-81
2024/01/28 12:21:43;;;;;;;13.50;6.65;;;;;;;4.26;69.01;101214.19;6185984;23;20391;-81
2024/01/28 12:24:31;;;;;;;6.78;3.47;;;;;;;4.09;68.38;101192.88;6171540;23;20071;-81
2024/01/28 12:27:16;;;;;;;10.80;5.10;;;;;;;4.22;68.50;101212.81;6200576;23;20023;-83
2024/01/28 12:30:01;;;;;;;8.43;4.03;;;;;;;4.23;68.66;101203.94;6209112;23;20421;-80
2024/01/28 12:32:49;;;;;;;11.82;4.28;;;;;;;4.22;68.88;101205.75;6184142;23;20023;-79
2024/01/28 12:35:40;;;;;;;12.98;4.93;;;;;;;4.24;68.69;101190.66;6171999;23;20023;-82
2024/01/28 12:38:25;;;;;;;7.55;3.33;;;;;;;4.28;68.95;101199.09;6188432;23;20322;-82
2024/01/28 12:41:12;;;;;;;13.30;4.75;;;;;;;4.33;69.45;101207.41;6167471;23;20298;-82
2024/01/28 12:43:58;;;;;;;14.70;7.13;;;;;;;4.34;69.08;101198.53;6203102;23;20047;-81
2024/01/28 12:46:44;;;;;;;21.17;6.93;;;;;;;4.55;68.17;101204.44;6183430;23;20027;-82
2024/01/28 12:49:30;;;;;;;19.15;7.47;;;;;;;4.51;68.00;101203.09;6205091;23;20322;-82
2024/01/28 12:52:15;;;;;;;17.83;6.78;;;;;;;4.59;67.79;101199.72;6162766;23;20048;-82
2024/01/28 12:55:02;;;;;;;5.20;3.05;;;;;;;4.42;67.74;101193.41;6185035;23;20319;-80